Terminal Aerodrome Forecast
Issued by NWS Charleston, WV

Current Version | Previous Version | Graphics & Text | Print | Product List | Glossary On
Versions: 1 2 3 4 5 6 7 8 9 10 11 12 13 14 15 16 17 18 19 20 21 22
000
FTUS41 KRLX 210200 AAA
TAFPKB
TAF AMD
KPKB 210233Z 2103/2124 29008G13KT P6SM BKN040
     FM210500 25007KT P6SM SCT030
     FM211500 24012G21KT P6SM FEW045
     FM212100 24013G22KT P6SM BKN070=

USA.gov is the U.S. government's official web portal to all federal, state and local government web resources and services.